• Join FlightAware (Why Join?)
  • Login
  • US Flag 
03:17PM EDT


 

Airport Tracker/Info


-or-


 

Live Flight TrackerFlight Track Log ✈ SWA1035 ✈ 29-Apr-2013 ✈ KMCI - KABQ

Flight Track Log - Related Links

Times and Time Zones

All times are in EDT time to prevent confusion due to time zone crossing. See the SWA1035 flight status page for this flight to view local times or setup timezone preferences in your user account.

Time Position Orientation Groundspeed Altitude Reporting Facility
EDT Latitude Longitude Course Direction KTS MPH feet Rate Location/Type
02:17PM 39.3000 -94.7333 200° South 152 175 1,700  Level Kansas City TRACON
02:18PM 39.2725 -94.7464 200° South 151 174 2,700 1,740 Climbing Kansas City Center
02:19PM 39.2522 -94.8292 252° West 236 272 4,900 3,000 Climbing Kansas City Center
02:20PM 39.2456 -94.9136 264° West 245 282 8,900 3,120 Climbing Kansas City Center
02:21PM 39.2347 -95.0283 263° West 308 354 11,400 3,000 Climbing Kansas City Center
02:22PM 39.2222 -95.1636 263° West 344 396 15,100 3,480 Climbing Kansas City Center
02:23PM 39.2100 -95.2933 263° West 364 419 18,600 3,000 Climbing Kansas City Center
02:24PM 39.1975 -95.4256 263° West 372 428 21,300 2,460 Climbing Kansas City Center
02:25PM 39.1844 -95.5589 263° West 386 444 23,800 2,400 Climbing Kansas City Center
02:26PM 39.1689 -95.7183 263° West 399 459 26,300 2,040 Climbing Kansas City Center
02:27PM 39.1553 -95.8594 263° West 414 476 28,100 1,860 Climbing Kansas City Center
02:28PM 39.1361 -96.0278 262° West 424 488 30,200 1,860 Climbing Kansas City Center
02:29PM 39.1175 -96.1700 260° West 421 484 32,000 1,560 Climbing Kansas City Center
02:30PM 39.0997 -96.3094 261° West 414 476 33,500 1,740 Climbing Kansas City Center
02:31PM 39.0797 -96.4703 261° West 407 468 35,700 1,200 Climbing Kansas City Center
02:32PM 39.0583 -96.6036 258° West 400 460 36,000 120 Climbing Kansas City Center
02:33PM 39.0408 -96.7600 262° West 396 456 36,000 240 Level Kansas City Center
02:34PM 39.0222 -96.8947 260° West 398 458 36,500 960 Climbing Kansas City Center
02:35PM 39.0025 -97.0486 261° West 394 453 38,000 960 Climbing Kansas City Center
02:36PM 38.9856 -97.1858 261° West 403 464 38,500 780 Climbing Kansas City Center
02:37PM 38.9661 -97.3303 260° West 412 474 39,700 720 Climbing Kansas City Center
02:38PM 38.9292 -97.4667 251° West 410 472 40,000 120 Climbing Kansas City Center
02:39PM 38.8733 -97.6269 246° West 410 472 40,000  Level Kansas City Center
02:41PM 38.8283 -97.7556 246° West 413 475 40,000  Level Kansas City Center
02:42PM 38.7781 -97.8933 245° Southwest 415 478 40,000  Level Kansas City Center
02:43PM 38.7308 -98.0272 246° West 415 478 40,000  Level Kansas City Center
02:44PM 38.6811 -98.1614 245° Southwest 419 482 40,000  Level Kansas City Center
02:45PM 38.6333 -98.2958 246° West 419 482 40,000  Level Kansas City Center
02:46PM 38.5747 -98.4597 245° Southwest 424 488 40,000  Level Kansas City Center
02:47PM 38.5250 -98.5956 245° Southwest 424 488 40,000  Level Kansas City Center
02:48PM 38.4753 -98.7322 245° Southwest 426 490 40,000  Level Kansas City Center
02:49PM 38.4242 -98.8686 244° Southwest 427 491 40,000  Level Kansas City Center
02:50PM 38.3742 -99.0058 245° Southwest 429 494 40,000  Level Kansas City Center
02:51PM 38.3225 -99.1431 244° Southwest 430 495 40,000  Level Kansas City Center
02:52PM 38.2625 -99.3061 245° Southwest 427 491 40,000  Level Kansas City Center
02:53PM 38.2122 -99.4411 245° Southwest 424 488 40,000  Level Kansas City Center
02:54PM 38.1603 -99.5739 244° Southwest 427 491 40,000  Level Kansas City Center
02:55PM 38.1044 -99.7231 245° Southwest 420 483 40,000  Level Kansas City Center
02:56PM 38.0567 -99.8508 245° Southwest 420 483 40,000  Level Kansas City Center
02:57PM 37.9994 -99.9981 244° Southwest 418 481 40,000  Level Kansas City Center
02:58PM 37.9508 -100.1258 244° Southwest 419 482 40,000  Level Kansas City Center
02:59PM 37.8939 -100.2753 244° Southwest 422 486 40,000  Level Kansas City Center
03:00PM 37.8442 -100.4014 243° Southwest 420 483 40,000  Level Kansas City Center
03:01PM 37.7872 -100.5467 244° Southwest 421 484 40,000  Level Kansas City Center
03:02PM 37.7361 -100.6786 244° Southwest 420 483 40,000  Level Kansas City Center
03:03PM 37.6839 -100.8111 244° Southwest 421 484 40,000  Level Kansas City Center
03:04PM 37.6300 -100.9442 243° Southwest 422 486 40,000  Level Kansas City Center
03:05PM 37.5761 -101.0833 244° Southwest 432 497 40,000  Level Kansas City Center
03:06PM 37.5203 -101.2233 243° Southwest 429 494 40,000  Level Kansas City Center
03:07PM 37.4597 -101.3736 243° Southwest 430 495 40,000  Level Kansas City Center
03:08PM 37.4089 -101.5000 243° Southwest 426 490 40,000  Level Kansas City Center
03:09PM 37.3497 -101.6489 243° Southwest 425 489 40,000  Level Kansas City Center
03:10PM 37.2986 -101.7731 243° Southwest 420 483 40,000  Level Kansas City Center
03:11PM 37.2400 -101.9183 243° Southwest 419 482 40,000  Level Kansas City Center
03:12PM 37.2153 -101.9811 244° Southwest 416 479 40,000  Level Albuquerque Center
03:13PM 37.1661 -102.1047 244° Southwest 414 476 40,000  Level Albuquerque Center
03:14PM 37.1083 -102.2467 243° Southwest 410 472 40,000  Level Albuquerque Center
03:15PM 37.0567 -102.3686 242° Southwest 412 474 40,000  Level Albuquerque Center
03:16PM 36.9972 -102.5117 243° Southwest 414 476 40,000  Level Albuquerque Center
03:17PM 36.9453 -102.6389 243° Southwest 413 475 40,000  Level Albuquerque Center
03:18PM 36.8942 -102.7633 243° Southwest 417 480 40,000  Level Albuquerque Center
03:19PM 36.8325 -102.9097 242° Southwest 423 487 40,000  Level Albuquerque Center
03:20PM 36.7797 -103.0336 242° Southwest 421 484 40,000  Level Albuquerque Center
03:21PM 36.7186 -103.1778 242° Southwest 420 483 40,000  Level Albuquerque Center
03:22PM 36.6667 -103.3011 242° Southwest 419 482 40,000  Level Albuquerque Center
03:23PM 36.6067 -103.4408 242° Southwest 418 481 40,000  Level Albuquerque Center
03:24PM 36.5517 -103.5700 242° Southwest 419 482 40,000  Level Albuquerque Center
03:25PM 36.4969 -103.7000 242° Southwest 420 483 40,000  Level Albuquerque Center
03:26PM 36.4417 -103.8272 242° Southwest 419 482 40,000 -60 Level Albuquerque Center
03:27PM 36.3858 -103.9572 242° Southwest 421 484 39,900 -780 Descending Albuquerque Center
03:28PM 36.3286 -104.0861 241° Southwest 424 488 38,400 -960 Descending Albuquerque Center
03:30PM 36.2703 -104.2183 241° Southwest 430 495 38,000 -720 Descending Albuquerque Center
03:31PM 36.2100 -104.3522 241° Southwest 439 505 37,000 -1,020 Descending Albuquerque Center
03:32PM 36.1436 -104.5047 242° Southwest 433 498 36,000 -540 Descending Albuquerque Center
03:33PM 36.0886 -104.6325 242° Southwest 423 487 36,000  Level Albuquerque Center
03:34PM 36.0308 -104.7597 241° Southwest 422 486 36,000  Level Albuquerque Center
03:35PM 35.9717 -104.8917 241° Southwest 432 497 36,000 -420 Level Albuquerque Center
03:36PM 35.9114 -105.0256 241° Southwest 441 507 35,200 -900 Descending Albuquerque Center
03:37PM 35.8553 -105.1497 241° Southwest 424 488 34,200 -600 Descending Albuquerque Center
03:38PM 35.7978 -105.2775 241° Southwest 422 486 34,000 -120 Descending Albuquerque Center
03:39PM 35.7322 -105.4231 241° Southwest 417 480 34,000 -420 Level Albuquerque Center
03:40PM 35.6936 -105.5569 250° West 413 475 33,200 -1,620 Descending Albuquerque Center
03:41PM 35.6808 -105.7014 264° West 421 484 30,800 -2,580 Descending Albuquerque Center
03:42PM 35.6683 -105.8475 264° West 428 493 28,000 -2,640 Descending Albuquerque Center
03:43PM 35.6525 -105.9886 262° West 421 484 25,400 -2,280 Descending Albuquerque Center
03:44PM 35.6389 -106.1256 263° West 410 472 23,400 -1,800 Descending Albuquerque Center
03:45PM 35.6275 -106.2522 264° West 381 438 21,700 -1,800 Descending Albuquerque Center
03:46PM 35.6161 -106.3747 264° West 366 421 19,700 -2,220 Descending Albuquerque Center
03:46PM 35.6061 -106.4406 259° West 354 407 18,600 -2,460 Descending Albuquerque Center
03:47PM 35.6008 -106.5144 265° West 351 404 17,200 -2,520 Descending Albuquerque Center
03:47PM 35.5806 -106.5517 236° Southwest 348 400 16,100 -2,280 Descending Albuquerque Center
03:48PM 35.5281 -106.5908 211° Southwest 361 415 14,900 -2,220 Descending Albuquerque Center
03:48PM 35.4947 -106.6106 206° Southwest 357 411 13,900 -2,580 Descending Albuquerque Center
03:49PM 35.4422 -106.6444 208° Southwest 352 405 12,300 -2,640 Descending Albuquerque Center
03:49PM 35.4044 -106.6678 207° Southwest 343 395 11,300 -1,800 Descending Albuquerque Center
03:50PM 35.3603 -106.6967 208° Southwest 339 390 10,500 -1,380 Descending Albuquerque Center
03:50PM 35.3256 -106.7169 205° Southwest 309 356 9,900 -1,260 Descending Albuquerque Center
03:51PM 35.2808 -106.7278 191° South 316 364 9,200 -900 Descending Albuquerque Center
03:52PM 35.2386 -106.7314 184° South 291 335 8,900 -540 Descending Albuquerque Center
03:52PM 35.2019 -106.7328 182° South 296 341 8,700 -720 Descending Albuquerque Center
03:53PM 35.1667 -106.7344 182° South 250 288 8,200 -780 Descending Albuquerque Center
03:53PM 35.1325 -106.7369 183° South 269 310 7,900 -840 Descending Albuquerque Center
03:54PM 35.0983 -106.7339 176° South 214 246 7,400 -540 Descending Albuquerque Center
03:54PM 35.0733 -106.7256 165° South 234 269 7,400 -720 Level Albuquerque Center
03:55PM 35.0525 -106.7042 140° Southeast 179 206 6,700 -1,260 Descending Albuquerque Center
03:55PM 35.0442 -106.6667 105° East 191 220 6,100 -840 Descending Albuquerque Center
03:56PM 35.0442 -106.6111 90° East 172 198 5,300 -780 Descending Albuquerque Center
03:58PM 35.0402 -106.6092 90° East  Level Estimated